sensor_id;sensor_type;location;lat;lon;timestamp;P1;durP1;ratioP1;P2;durP2;ratioP2
77802;SDS011;66993;48.256;16.422;2023-10-09T00:00:12;5.5;;;3.4;;
77802;SDS011;66993;48.256;16.422;2023-10-09T00:05:13;6.2;;;3.4;;
77802;SDS011;66993;48.256;16.422;2023-10-09T00:10:14;6.6;;;3.3;;
77802;SDS011;66993;48.256;16.422;2023-10-09T00:15:16;6.6;;;3.4;;
77802;SDS011;66993;48.256;16.422;2023-10-09T00:20:17;7.2;;;3.1;;
77802;SDS011;66993;48.256;16.422;2023-10-09T00:25:18;9.8;;;3.8;;
77802;SDS011;66993;48.256;16.422;2023-10-09T00:30:19;7.1;;;3.4;;
77802;SDS011;66993;48.256;16.422;2023-10-09T00:35:21;9.1;;;3.7;;
77802;SDS011;66993;48.256;16.422;2023-10-09T00:40:22;6.7;;;3.7;;
77802;SDS011;66993;48.256;16.422;2023-10-09T00:45:23;9.0;;;3.5;;
77802;SDS011;66993;48.256;16.422;2023-10-09T00:50:25;6.8;;;3.7;;
77802;SDS011;66993;48.256;16.422;2023-10-09T00:55:26;6.6;;;3.9;;
77802;SDS011;66993;48.256;16.422;2023-10-09T01:00:27;6.2;;;3.2;;
77802;SDS011;66993;48.256;16.422;2023-10-09T01:05:28;6.4;;;3.5;;
77802;SDS011;66993;48.256;16.422;2023-10-09T01:10:30;5.7;;;3.2;;
77802;SDS011;66993;48.256;16.422;2023-10-09T01:15:31;5.6;;;3.0;;
77802;SDS011;66993;48.256;16.422;2023-10-09T01:20:32;6.7;;;3.3;;
77802;SDS011;66993;48.256;16.422;2023-10-09T01:25:34;7.8;;;3.4;;
77802;SDS011;66993;48.256;16.422;2023-10-09T01:30:35;5.9;;;3.1;;
77802;SDS011;66993;48.256;16.422;2023-10-09T01:35:36;6.5;;;3.5;;
77802;SDS011;66993;48.256;16.422;2023-10-09T01:40:37;5.8;;;3.1;;
77802;SDS011;66993;48.256;16.422;2023-10-09T01:45:39;7.0;;;3.4;;
77802;SDS011;66993;48.256;16.422;2023-10-09T01:50:40;5.5;;;3.3;;
77802;SDS011;66993;48.256;16.422;2023-10-09T01:55:41;5.8;;;3.4;;
77802;SDS011;66993;48.256;16.422;2023-10-09T02:00:42;6.2;;;3.1;;
77802;SDS011;66993;48.256;16.422;2023-10-09T02:05:44;6.0;;;3.3;;
77802;SDS011;66993;48.256;16.422;2023-10-09T02:10:45;5.4;;;3.2;;
77802;SDS011;66993;48.256;16.422;2023-10-09T02:15:46;7.1;;;3.3;;
77802;SDS011;66993;48.256;16.422;2023-10-09T02:20:48;7.6;;;3.6;;
77802;SDS011;66993;48.256;16.422;2023-10-09T02:25:50;6.4;;;3.3;;
77802;SDS011;66993;48.256;16.422;2023-10-09T02:30:50;7.3;;;3.7;;
77802;SDS011;66993;48.256;16.422;2023-10-09T02:35:52;6.3;;;3.7;;
77802;SDS011;66993;48.256;16.422;2023-10-09T02:40:53;5.8;;;3.5;;
77802;SDS011;66993;48.256;16.422;2023-10-09T02:45:54;7.0;;;3.9;;
77802;SDS011;66993;48.256;16.422;2023-10-09T02:50:55;6.1;;;3.5;;
77802;SDS011;66993;48.256;16.422;2023-10-09T02:55:57;6.0;;;3.7;;
77802;SDS011;66993;48.256;16.422;2023-10-09T03:00:58;6.1;;;3.5;;
77802;SDS011;66993;48.256;16.422;2023-10-09T03:05:59;5.6;;;3.1;;
77802;SDS011;66993;48.256;16.422;2023-10-09T03:11:01;5.4;;;3.1;;
77802;SDS011;66993;48.256;16.422;2023-10-09T03:16:02;5.3;;;3.3;;
77802;SDS011;66993;48.256;16.422;2023-10-09T03:21:03;6.4;;;3.4;;
77802;SDS011;66993;48.256;16.422;2023-10-09T03:26:05;7.2;;;3.6;;
77802;SDS011;66993;48.256;16.422;2023-10-09T03:31:06;5.8;;;3.2;;
77802;SDS011;66993;48.256;16.422;2023-10-09T03:36:07;6.1;;;3.5;;
77802;SDS011;66993;48.256;16.422;2023-10-09T03:41:09;6.6;;;3.6;;
77802;SDS011;66993;48.256;16.422;2023-10-09T03:46:10;7.5;;;3.8;;
77802;SDS011;66993;48.256;16.422;2023-10-09T03:51:11;7.9;;;4.3;;
77802;SDS011;66993;48.256;16.422;2023-10-09T03:56:13;7.6;;;3.8;;
77802;SDS011;66993;48.256;16.422;2023-10-09T04:01:14;7.6;;;4.2;;
77802;SDS011;66993;48.256;16.422;2023-10-09T04:06:16;8.3;;;4.0;;
77802;SDS011;66993;48.256;16.422;2023-10-09T04:11:17;9.2;;;4.1;;
77802;SDS011;66993;48.256;16.422;2023-10-09T04:16:18;7.0;;;4.2;;
77802;SDS011;66993;48.256;16.422;2023-10-09T04:21:19;6.6;;;3.8;;
77802;SDS011;66993;48.256;16.422;2023-10-09T04:26:21;10.0;;;4.0;;
77802;SDS011;66993;48.256;16.422;2023-10-09T04:31:22;8.7;;;3.9;;
77802;SDS011;66993;48.256;16.422;2023-10-09T04:36:24;6.8;;;4.1;;
77802;SDS011;66993;48.256;16.422;2023-10-09T04:41:25;7.8;;;3.9;;
77802;SDS011;66993;48.256;16.422;2023-10-09T04:46:26;7.2;;;3.8;;
77802;SDS011;66993;48.256;16.422;2023-10-09T04:51:27;9.3;;;3.9;;
77802;SDS011;66993;48.256;16.422;2023-10-09T04:56:29;9.3;;;4.2;;
77802;SDS011;66993;48.256;16.422;2023-10-09T05:01:30;8.6;;;4.0;;
77802;SDS011;66993;48.256;16.422;2023-10-09T05:06:31;9.2;;;4.3;;
77802;SDS011;66993;48.256;16.422;2023-10-09T05:11:34;7.1;;;4.0;;
77802;SDS011;66993;48.256;16.422;2023-10-09T05:16:34;8.6;;;3.5;;
77802;SDS011;66993;48.256;16.422;2023-10-09T05:21:37;7.5;;;4.1;;
77802;SDS011;66993;48.256;16.422;2023-10-09T05:26:37;8.0;;;4.3;;
77802;SDS011;66993;48.256;16.422;2023-10-09T05:31:38;7.5;;;4.1;;
77802;SDS011;66993;48.256;16.422;2023-10-09T05:36:39;9.2;;;4.0;;
77802;SDS011;66993;48.256;16.422;2023-10-09T05:41:41;7.9;;;3.8;;
77802;SDS011;66993;48.256;16.422;2023-10-09T05:46:42;7.2;;;3.7;;
77802;SDS011;66993;48.256;16.422;2023-10-09T05:51:43;7.2;;;3.9;;
77802;SDS011;66993;48.256;16.422;2023-10-09T05:56:44;7.5;;;4.1;;
77802;SDS011;66993;48.256;16.422;2023-10-09T06:01:46;8.7;;;3.7;;
77802;SDS011;66993;48.256;16.422;2023-10-09T06:06:47;6.9;;;3.7;;
77802;SDS011;66993;48.256;16.422;2023-10-09T06:11:49;6.4;;;3.1;;
77802;SDS011;66993;48.256;16.422;2023-10-09T06:16:50;6.3;;;3.2;;
77802;SDS011;66993;48.256;16.422;2023-10-09T06:21:51;5.6;;;3.1;;
77802;SDS011;66993;48.256;16.422;2023-10-09T06:26:52;7.0;;;3.1;;
77802;SDS011;66993;48.256;16.422;2023-10-09T06:31:53;6.5;;;3.6;;
77802;SDS011;66993;48.256;16.422;2023-10-09T06:36:55;6.1;;;3.0;;
77802;SDS011;66993;48.256;16.422;2023-10-09T06:41:56;5.1;;;2.8;;
77802;SDS011;66993;48.256;16.422;2023-10-09T06:46:57;6.3;;;3.0;;
77802;SDS011;66993;48.256;16.422;2023-10-09T06:51:59;6.5;;;2.7;;
77802;SDS011;66993;48.256;16.422;2023-10-09T06:57:00;5.6;;;3.0;;
77802;SDS011;66993;48.256;16.422;2023-10-09T07:02:01;5.9;;;2.9;;
77802;SDS011;66993;48.256;16.422;2023-10-09T07:07:03;6.4;;;2.9;;
77802;SDS011;66993;48.256;16.422;2023-10-09T07:12:04;6.1;;;3.1;;
77802;SDS011;66993;48.256;16.422;2023-10-09T07:17:06;5.8;;;2.6;;
77802;SDS011;66993;48.256;16.422;2023-10-09T07:22:07;5.3;;;2.4;;
77802;SDS011;66993;48.256;16.422;2023-10-09T07:27:07;5.0;;;2.6;;
77802;SDS011;66993;48.256;16.422;2023-10-09T07:32:09;5.8;;;3.0;;
77802;SDS011;66993;48.256;16.422;2023-10-09T07:37:10;5.5;;;2.6;;
77802;SDS011;66993;48.256;16.422;2023-10-09T07:42:12;5.9;;;2.5;;
77802;SDS011;66993;48.256;16.422;2023-10-09T07:47:13;6.2;;;2.5;;
77802;SDS011;66993;48.256;16.422;2023-10-09T07:52:14;5.5;;;2.6;;
77802;SDS011;66993;48.256;16.422;2023-10-09T07:57:15;5.5;;;2.6;;
77802;SDS011;66993;48.256;16.422;2023-10-09T08:02:16;5.6;;;2.6;;
77802;SDS011;66993;48.256;16.422;2023-10-09T08:07:17;5.5;;;2.7;;
77802;SDS011;66993;48.256;16.422;2023-10-09T08:12:19;6.0;;;2.9;;
77802;SDS011;66993;48.256;16.422;2023-10-09T08:17:20;6.2;;;2.6;;
77802;SDS011;66993;48.256;16.422;2023-10-09T08:22:22;5.6;;;2.2;;
77802;SDS011;66993;48.256;16.422;2023-10-09T08:27:23;5.7;;;2.6;;
77802;SDS011;66993;48.256;16.422;2023-10-09T08:32:24;5.8;;;2.8;;
77802;SDS011;66993;48.256;16.422;2023-10-09T08:37:25;5.6;;;2.8;;
77802;SDS011;66993;48.256;16.422;2023-10-09T08:42:27;5.6;;;2.6;;
77802;SDS011;66993;48.256;16.422;2023-10-09T08:47:28;6.8;;;2.5;;
77802;SDS011;66993;48.256;16.422;2023-10-09T08:52:29;5.5;;;2.6;;
77802;SDS011;66993;48.256;16.422;2023-10-09T08:57:30;6.5;;;2.4;;
77802;SDS011;66993;48.256;16.422;2023-10-09T09:02:31;8.0;;;3.1;;
77802;SDS011;66993;48.256;16.422;2023-10-09T09:07:33;6.1;;;2.6;;
77802;SDS011;66993;48.256;16.422;2023-10-09T09:12:34;6.0;;;2.6;;
77802;SDS011;66993;48.256;16.422;2023-10-09T09:17:35;8.6;;;3.0;;
77802;SDS011;66993;48.256;16.422;2023-10-09T09:22:51;8.3;;;2.6;;
77802;SDS011;66993;48.256;16.422;2023-10-09T09:27:43;10.0;;;3.0;;
77802;SDS011;66993;48.256;16.422;2023-10-09T09:32:39;7.5;;;2.6;;
77802;SDS011;66993;48.256;16.422;2023-10-09T09:37:40;4.8;;;2.5;;
77802;SDS011;66993;48.256;16.422;2023-10-09T09:42:42;6.4;;;2.7;;
77802;SDS011;66993;48.256;16.422;2023-10-09T09:47:43;7.0;;;3.2;;
77802;SDS011;66993;48.256;16.422;2023-10-09T09:52:44;6.5;;;3.1;;
77802;SDS011;66993;48.256;16.422;2023-10-09T09:57:45;6.7;;;3.1;;
77802;SDS011;66993;48.256;16.422;2023-10-09T10:02:47;9.2;;;3.1;;
77802;SDS011;66993;48.256;16.422;2023-10-09T10:07:48;10.0;;;3.3;;
77802;SDS011;66993;48.256;16.422;2023-10-09T10:12:50;8.7;;;3.1;;
77802;SDS011;66993;48.256;16.422;2023-10-09T10:27:55;6.6;;;2.8;;
77802;SDS011;66993;48.256;16.422;2023-10-09T10:32:55;8.5;;;3.1;;
77802;SDS011;66993;48.256;16.422;2023-10-09T10:37:56;8.7;;;3.2;;
77802;SDS011;66993;48.256;16.422;2023-10-09T10:42:57;8.1;;;3.4;;
77802;SDS011;66993;48.256;16.422;2023-10-09T10:47:58;8.4;;;3.5;;
77802;SDS011;66993;48.256;16.422;2023-10-09T10:53:10;9.4;;;3.9;;
77802;SDS011;66993;48.256;16.422;2023-10-09T10:58:01;7.8;;;3.6;;
77802;SDS011;66993;48.256;16.422;2023-10-09T11:03:02;10.6;;;4.2;;
77802;SDS011;66993;48.256;16.422;2023-10-09T11:08:05;11.3;;;5.0;;
77802;SDS011;66993;48.256;16.422;2023-10-09T11:13:05;11.1;;;4.2;;
77802;SDS011;66993;48.256;16.422;2023-10-09T11:18:07;11.7;;;5.2;;
77802;SDS011;66993;48.256;16.422;2023-10-09T11:23:07;11.9;;;4.6;;
77802;SDS011;66993;48.256;16.422;2023-10-09T11:33:10;13.6;;;5.0;;
77802;SDS011;66993;48.256;16.422;2023-10-09T11:38:11;10.0;;;4.5;;
77802;SDS011;66993;48.256;16.422;2023-10-09T11:43:13;13.1;;;4.9;;
77802;SDS011;66993;48.256;16.422;2023-10-09T11:48:17;12.1;;;4.8;;
77802;SDS011;66993;48.256;16.422;2023-10-09T11:53:15;10.7;;;4.4;;
77802;SDS011;66993;48.256;16.422;2023-10-09T11:58:16;12.5;;;5.4;;
77802;SDS011;66993;48.256;16.422;2023-10-09T12:03:17;12.7;;;5.1;;
77802;SDS011;66993;48.256;16.422;2023-10-09T12:08:19;10.6;;;5.0;;
77802;SDS011;66993;48.256;16.422;2023-10-09T12:13:20;11.7;;;5.2;;
77802;SDS011;66993;48.256;16.422;2023-10-09T12:18:21;12.8;;;5.3;;
77802;SDS011;66993;48.256;16.422;2023-10-09T12:23:23;11.0;;;5.1;;
77802;SDS011;66993;48.256;16.422;2023-10-09T12:28:24;11.5;;;5.6;;
77802;SDS011;66993;48.256;16.422;2023-10-09T12:33:27;14.9;;;6.0;;
77802;SDS011;66993;48.256;16.422;2023-10-09T12:38:26;15.3;;;5.8;;
77802;SDS011;66993;48.256;16.422;2023-10-09T12:43:28;13.9;;;6.2;;
77802;SDS011;66993;48.256;16.422;2023-10-09T12:48:29;13.4;;;5.6;;
77802;SDS011;66993;48.256;16.422;2023-10-09T12:53:31;11.7;;;5.9;;
77802;SDS011;66993;48.256;16.422;2023-10-09T12:58:32;11.8;;;5.8;;
77802;SDS011;66993;48.256;16.422;2023-10-09T13:03:33;12.7;;;5.1;;
77802;SDS011;66993;48.256;16.422;2023-10-09T13:08:34;10.9;;;5.1;;
77802;SDS011;66993;48.256;16.422;2023-10-09T13:13:36;12.2;;;5.1;;
77802;SDS011;66993;48.256;16.422;2023-10-09T13:18:38;12.1;;;5.5;;
77802;SDS011;66993;48.256;16.422;2023-10-09T13:23:38;12.4;;;5.6;;
77802;SDS011;66993;48.256;16.422;2023-10-09T13:28:39;12.9;;;5.6;;
77802;SDS011;66993;48.256;16.422;2023-10-09T13:33:42;13.2;;;5.9;;
77802;SDS011;66993;48.256;16.422;2023-10-09T13:38:42;12.6;;;6.6;;
77802;SDS011;66993;48.256;16.422;2023-10-09T13:43:43;14.5;;;5.8;;
77802;SDS011;66993;48.256;16.422;2023-10-09T13:48:44;13.9;;;5.8;;
77802;SDS011;66993;48.256;16.422;2023-10-09T13:53:47;13.6;;;6.0;;
77802;SDS011;66993;48.256;16.422;2023-10-09T13:58:48;12.6;;;5.6;;
77802;SDS011;66993;48.256;16.422;2023-10-09T14:03:48;14.2;;;6.4;;
77802;SDS011;66993;48.256;16.422;2023-10-09T14:08:50;16.0;;;6.2;;
77802;SDS011;66993;48.256;16.422;2023-10-09T14:13:51;16.1;;;6.7;;
77802;SDS011;66993;48.256;16.422;2023-10-09T14:18:53;13.8;;;6.4;;
77802;SDS011;66993;48.256;16.422;2023-10-09T14:23:54;16.9;;;6.5;;
77802;SDS011;66993;48.256;16.422;2023-10-09T14:28:55;14.3;;;6.5;;
77802;SDS011;66993;48.256;16.422;2023-10-09T14:33:56;14.0;;;6.0;;
77802;SDS011;66993;48.256;16.422;2023-10-09T14:38:57;14.1;;;6.4;;
77802;SDS011;66993;48.256;16.422;2023-10-09T14:43:59;15.6;;;6.1;;
77802;SDS011;66993;48.256;16.422;2023-10-09T14:49:00;14.6;;;6.4;;
77802;SDS011;66993;48.256;16.422;2023-10-09T14:54:02;15.3;;;5.4;;
77802;SDS011;66993;48.256;16.422;2023-10-09T14:59:02;12.5;;;5.5;;
77802;SDS011;66993;48.256;16.422;2023-10-09T15:04:04;14.3;;;5.7;;
77802;SDS011;66993;48.256;16.422;2023-10-09T15:09:05;15.2;;;6.5;;
77802;SDS011;66993;48.256;16.422;2023-10-09T15:14:06;13.7;;;4.3;;
77802;SDS011;66993;48.256;16.422;2023-10-09T15:19:08;11.4;;;4.2;;
77802;SDS011;66993;48.256;16.422;2023-10-09T15:24:10;12.2;;;5.1;;
77802;SDS011;66993;48.256;16.422;2023-10-09T15:29:10;13.1;;;4.7;;
77802;SDS011;66993;48.256;16.422;2023-10-09T15:34:12;13.0;;;5.4;;
77802;SDS011;66993;48.256;16.422;2023-10-09T15:39:13;18.4;;;5.9;;
77802;SDS011;66993;48.256;16.422;2023-10-09T15:44:14;14.0;;;5.5;;
77802;SDS011;66993;48.256;16.422;2023-10-09T15:49:15;15.2;;;5.7;;
77802;SDS011;66993;48.256;16.422;2023-10-09T15:54:17;14.6;;;6.5;;
77802;SDS011;66993;48.256;16.422;2023-10-09T15:59:18;12.4;;;5.3;;
77802;SDS011;66993;48.256;16.422;2023-10-09T16:04:19;15.6;;;6.0;;
77802;SDS011;66993;48.256;16.422;2023-10-09T16:09:21;18.0;;;6.0;;
77802;SDS011;66993;48.256;16.422;2023-10-09T16:14:22;16.0;;;6.1;;
77802;SDS011;66993;48.256;16.422;2023-10-09T16:19:23;16.0;;;5.3;;
77802;SDS011;66993;48.256;16.422;2023-10-09T16:24:25;17.8;;;6.7;;
77802;SDS011;66993;48.256;16.422;2023-10-09T16:29:26;14.9;;;5.4;;
77802;SDS011;66993;48.256;16.422;2023-10-09T16:34:27;16.0;;;6.0;;
77802;SDS011;66993;48.256;16.422;2023-10-09T16:39:28;14.3;;;6.3;;
77802;SDS011;66993;48.256;16.422;2023-10-09T16:44:30;12.8;;;4.4;;
77802;SDS011;66993;48.256;16.422;2023-10-09T16:49:31;11.8;;;4.9;;
77802;SDS011;66993;48.256;16.422;2023-10-09T16:54:32;10.6;;;4.8;;
77802;SDS011;66993;48.256;16.422;2023-10-09T16:59:33;11.1;;;4.7;;
77802;SDS011;66993;48.256;16.422;2023-10-09T17:04:35;12.0;;;4.7;;
77802;SDS011;66993;48.256;16.422;2023-10-09T17:09:36;12.2;;;5.4;;
77802;SDS011;66993;48.256;16.422;2023-10-09T17:14:37;13.6;;;5.6;;
77802;SDS011;66993;48.256;16.422;2023-10-09T17:19:38;14.0;;;5.9;;
77802;SDS011;66993;48.256;16.422;2023-10-09T17:24:40;12.6;;;6.4;;
77802;SDS011;66993;48.256;16.422;2023-10-09T17:29:41;15.9;;;6.4;;
77802;SDS011;66993;48.256;16.422;2023-10-09T17:34:42;17.0;;;6.6;;
77802;SDS011;66993;48.256;16.422;2023-10-09T17:39:43;15.3;;;6.8;;
77802;SDS011;66993;48.256;16.422;2023-10-09T17:44:46;16.8;;;6.9;;
77802;SDS011;66993;48.256;16.422;2023-10-09T17:49:46;15.0;;;6.1;;
77802;SDS011;66993;48.256;16.422;2023-10-09T17:54:47;15.4;;;6.6;;
77802;SDS011;66993;48.256;16.422;2023-10-09T17:59:48;13.3;;;6.3;;
77802;SDS011;66993;48.256;16.422;2023-10-09T18:04:50;13.2;;;6.4;;
77802;SDS011;66993;48.256;16.422;2023-10-09T18:09:51;13.9;;;5.6;;
77802;SDS011;66993;48.256;16.422;2023-10-09T18:14:53;12.3;;;5.9;;
77802;SDS011;66993;48.256;16.422;2023-10-09T18:19:54;13.7;;;5.6;;
77802;SDS011;66993;48.256;16.422;2023-10-09T18:24:55;14.1;;;6.1;;
77802;SDS011;66993;48.256;16.422;2023-10-09T18:29:56;15.5;;;6.1;;
77802;SDS011;66993;48.256;16.422;2023-10-09T18:34:57;14.6;;;6.2;;
77802;SDS011;66993;48.256;16.422;2023-10-09T18:39:59;14.2;;;6.4;;
77802;SDS011;66993;48.256;16.422;2023-10-09T18:45:00;14.1;;;6.7;;
77802;SDS011;66993;48.256;16.422;2023-10-09T18:50:01;13.8;;;6.3;;
77802;SDS011;66993;48.256;16.422;2023-10-09T18:55:03;17.7;;;7.3;;
77802;SDS011;66993;48.256;16.422;2023-10-09T19:00:04;15.3;;;6.2;;
77802;SDS011;66993;48.256;16.422;2023-10-09T19:05:05;13.2;;;6.1;;
77802;SDS011;66993;48.256;16.422;2023-10-09T19:10:07;12.7;;;5.0;;
77802;SDS011;66993;48.256;16.422;2023-10-09T19:15:08;16.2;;;6.0;;
77802;SDS011;66993;48.256;16.422;2023-10-09T19:20:09;13.3;;;5.8;;
77802;SDS011;66993;48.256;16.422;2023-10-09T19:25:10;15.4;;;6.4;;
77802;SDS011;66993;48.256;16.422;2023-10-09T19:30:12;17.0;;;5.9;;
77802;SDS011;66993;48.256;16.422;2023-10-09T19:35:13;15.9;;;5.1;;
77802;SDS011;66993;48.256;16.422;2023-10-09T19:40:14;12.9;;;4.6;;
77802;SDS011;66993;48.256;16.422;2023-10-09T19:45:15;16.8;;;4.6;;
77802;SDS011;66993;48.256;16.422;2023-10-09T19:50:17;12.6;;;4.2;;
77802;SDS011;66993;48.256;16.422;2023-10-09T19:55:19;13.3;;;5.0;;
77802;SDS011;66993;48.256;16.422;2023-10-09T20:00:19;15.9;;;5.2;;
77802;SDS011;66993;48.256;16.422;2023-10-09T20:05:21;15.8;;;5.1;;
77802;SDS011;66993;48.256;16.422;2023-10-09T20:10:22;16.2;;;5.5;;
77802;SDS011;66993;48.256;16.422;2023-10-09T20:15:23;16.4;;;6.0;;
77802;SDS011;66993;48.256;16.422;2023-10-09T20:20:24;15.7;;;4.8;;
77802;SDS011;66993;48.256;16.422;2023-10-09T20:25:26;12.8;;;5.2;;
77802;SDS011;66993;48.256;16.422;2023-10-09T20:30:27;14.3;;;5.2;;
77802;SDS011;66993;48.256;16.422;2023-10-09T20:35:29;15.9;;;5.0;;
77802;SDS011;66993;48.256;16.422;2023-10-09T20:40:30;12.6;;;4.3;;
77802;SDS011;66993;48.256;16.422;2023-10-09T20:45:31;15.4;;;4.6;;
77802;SDS011;66993;48.256;16.422;2023-10-09T20:50:32;13.9;;;4.5;;
77802;SDS011;66993;48.256;16.422;2023-10-09T20:55:34;12.4;;;4.5;;
77802;SDS011;66993;48.256;16.422;2023-10-09T21:00:35;16.1;;;4.6;;
77802;SDS011;66993;48.256;16.422;2023-10-09T21:05:37;12.9;;;4.5;;
77802;SDS011;66993;48.256;16.422;2023-10-09T21:10:37;14.3;;;4.8;;
77802;SDS011;66993;48.256;16.422;2023-10-09T21:15:39;14.5;;;4.6;;
77802;SDS011;66993;48.256;16.422;2023-10-09T21:20:41;13.0;;;4.7;;
77802;SDS011;66993;48.256;16.422;2023-10-09T21:25:41;13.4;;;4.7;;
77802;SDS011;66993;48.256;16.422;2023-10-09T21:30:42;15.9;;;4.3;;
77802;SDS011;66993;48.256;16.422;2023-10-09T21:35:44;13.8;;;4.5;;
77802;SDS011;66993;48.256;16.422;2023-10-09T21:40:45;12.7;;;4.3;;
77802;SDS011;66993;48.256;16.422;2023-10-09T21:45:47;15.1;;;5.3;;
77802;SDS011;66993;48.256;16.422;2023-10-09T21:50:48;13.2;;;4.6;;
77802;SDS011;66993;48.256;16.422;2023-10-09T21:55:49;14.1;;;4.7;;
77802;SDS011;66993;48.256;16.422;2023-10-09T22:00:50;16.7;;;4.9;;
77802;SDS011;66993;48.256;16.422;2023-10-09T22:05:52;13.5;;;4.7;;
77802;SDS011;66993;48.256;16.422;2023-10-09T22:10:53;13.1;;;4.7;;
77802;SDS011;66993;48.256;16.422;2023-10-09T22:15:54;13.8;;;5.1;;
77802;SDS011;66993;48.256;16.422;2023-10-09T22:20:56;16.6;;;4.8;;
77802;SDS011;66993;48.256;16.422;2023-10-09T22:25:57;12.5;;;4.9;;
77802;SDS011;66993;48.256;16.422;2023-10-09T22:30:58;13.3;;;4.7;;
77802;SDS011;66993;48.256;16.422;2023-10-09T22:36:00;15.1;;;4.7;;
77802;SDS011;66993;48.256;16.422;2023-10-09T22:41:01;10.0;;;4.3;;
77802;SDS011;66993;48.256;16.422;2023-10-09T22:46:02;11.6;;;4.4;;
77802;SDS011;66993;48.256;16.422;2023-10-09T22:51:03;13.5;;;4.4;;
77802;SDS011;66993;48.256;16.422;2023-10-09T22:56:05;15.1;;;5.1;;
77802;SDS011;66993;48.256;16.422;2023-10-09T23:01:06;15.6;;;5.1;;
77802;SDS011;66993;48.256;16.422;2023-10-09T23:06:08;13.5;;;4.9;;
77802;SDS011;66993;48.256;16.422;2023-10-09T23:11:09;12.4;;;4.4;;
77802;SDS011;66993;48.256;16.422;2023-10-09T23:16:11;12.3;;;4.7;;
77802;SDS011;66993;48.256;16.422;2023-10-09T23:21:11;12.0;;;4.9;;
77802;SDS011;66993;48.256;16.422;2023-10-09T23:26:13;12.5;;;4.7;;
77802;SDS011;66993;48.256;16.422;2023-10-09T23:31:14;12.9;;;5.1;;
77802;SDS011;66993;48.256;16.422;2023-10-09T23:36:15;14.2;;;5.1;;
77802;SDS011;66993;48.256;16.422;2023-10-09T23:41:17;16.1;;;5.2;;
77802;SDS011;66993;48.256;16.422;2023-10-09T23:46:18;14.4;;;4.9;;
77802;SDS011;66993;48.256;16.422;2023-10-09T23:51:19;12.0;;;5.1;;
77802;SDS011;66993;48.256;16.422;2023-10-09T23:56:21;14.9;;;5.2;;
